sensor_id;sensor_type;location;lat;lon;timestamp;pressure;altitude;pressure_sealevel;temperature;humidity
13705;BME280;6924;52.122;9.952;2023-12-20T00:00:57;100101.09;;;6.44;100.00
13705;BME280;6924;52.122;9.952;2023-12-20T00:03:23;100103.75;;;6.54;100.00
13705;BME280;6924;52.122;9.952;2023-12-20T00:05:50;100110.00;;;6.51;100.00
13705;BME280;6924;52.122;9.952;2023-12-20T00:08:17;100117.53;;;6.56;100.00
13705;BME280;6924;52.122;9.952;2023-12-20T00:10:43;100098.41;;;6.58;100.00
13705;BME280;6924;52.122;9.952;2023-12-20T00:13:11;100104.09;;;6.53;100.00
13705;BME280;6924;52.122;9.952;2023-12-20T00:15:38;100100.56;;;6.42;100.00
13705;BME280;6924;52.122;9.952;2023-12-20T00:18:04;100101.22;;;6.58;100.00
13705;BME280;6924;52.122;9.952;2023-12-20T00:20:31;100098.81;;;6.70;100.00
13705;BME280;6924;52.122;9.952;2023-12-20T00:22:57;100106.34;;;6.51;100.00
13705;BME280;6924;52.122;9.952;2023-12-20T00:25:24;100112.91;;;6.65;100.00
13705;BME280;6924;52.122;9.952;2023-12-20T00:27:50;100108.47;;;6.59;100.00
13705;BME280;6924;52.122;9.952;2023-12-20T00:30:19;100111.97;;;6.51;100.00
13705;BME280;6924;52.122;9.952;2023-12-20T00:32:45;100108.09;;;6.47;100.00
13705;BME280;6924;52.122;9.952;2023-12-20T00:35:12;100097.59;;;6.52;100.00
13705;BME280;6924;52.122;9.952;2023-12-20T00:37:38;100093.91;;;6.57;100.00
13705;BME280;6924;52.122;9.952;2023-12-20T00:40:07;100106.03;;;6.52;100.00
13705;BME280;6924;52.122;9.952;2023-12-20T00:42:34;100116.44;;;6.28;100.00
13705;BME280;6924;52.122;9.952;2023-12-20T00:45:00;100116.16;;;6.29;100.00
13705;BME280;6924;52.122;9.952;2023-12-20T00:47:28;100119.31;;;6.23;100.00
13705;BME280;6924;52.122;9.952;2023-12-20T00:49:55;100131.31;;;6.28;100.00
13705;BME280;6924;52.122;9.952;2023-12-20T00:52:21;100139.13;;;6.07;100.00
13705;BME280;6924;52.122;9.952;2023-12-20T00:54:48;100133.22;;;6.09;100.00
13705;BME280;6924;52.122;9.952;2023-12-20T00:57:14;100131.47;;;6.13;100.00
13705;BME280;6924;52.122;9.952;2023-12-20T00:59:41;100137.75;;;5.99;100.00
13705;BME280;6924;52.122;9.952;2023-12-20T01:02:07;100136.47;;;5.87;100.00
13705;BME280;6924;52.122;9.952;2023-12-20T01:04:35;100137.63;;;5.80;100.00
13705;BME280;6924;52.122;9.952;2023-12-20T01:07:01;100131.22;;;5.75;100.00
13705;BME280;6924;52.122;9.952;2023-12-20T01:09:28;100126.47;;;5.70;100.00
13705;BME280;6924;52.122;9.952;2023-12-20T01:11:54;100133.84;;;5.61;100.00
13705;BME280;6924;52.122;9.952;2023-12-20T01:14:21;100134.75;;;5.56;100.00
13705;BME280;6924;52.122;9.952;2023-12-20T01:16:47;100135.06;;;5.50;100.00
13705;BME280;6924;52.122;9.952;2023-12-20T01:19:14;100135.34;;;5.48;100.00
13705;BME280;6924;52.122;9.952;2023-12-20T01:21:42;100134.81;;;5.46;100.00
13705;BME280;6924;52.122;9.952;2023-12-20T01:24:09;100141.88;;;5.38;100.00
13705;BME280;6924;52.122;9.952;2023-12-20T01:26:36;100143.59;;;5.34;100.00
13705;BME280;6924;52.122;9.952;2023-12-20T01:29:02;100134.66;;;5.27;100.00
13705;BME280;6924;52.122;9.952;2023-12-20T01:31:28;100137.16;;;5.29;100.00
13705;BME280;6924;52.122;9.952;2023-12-20T01:33:55;100134.13;;;5.20;100.00
13705;BME280;6924;52.122;9.952;2023-12-20T01:36:21;100137.53;;;5.17;100.00
13705;BME280;6924;52.122;9.952;2023-12-20T01:38:49;100139.22;;;5.13;100.00
13705;BME280;6924;52.122;9.952;2023-12-20T01:41:15;100141.78;;;5.09;100.00
13705;BME280;6924;52.122;9.952;2023-12-20T01:43:41;100151.28;;;5.13;100.00
13705;BME280;6924;52.122;9.952;2023-12-20T01:46:08;100150.47;;;5.08;100.00
13705;BME280;6924;52.122;9.952;2023-12-20T01:48:35;100151.63;;;5.02;100.00
13705;BME280;6924;52.122;9.952;2023-12-20T01:51:02;100156.97;;;4.98;100.00
13705;BME280;6924;52.122;9.952;2023-12-20T01:53:29;100161.69;;;5.08;100.00
13705;BME280;6924;52.122;9.952;2023-12-20T01:55:58;100160.06;;;4.96;100.00
13705;BME280;6924;52.122;9.952;2023-12-20T01:58:25;100167.94;;;4.89;100.00
13705;BME280;6924;52.122;9.952;2023-12-20T02:00:52;100174.31;;;5.05;100.00
13705;BME280;6924;52.122;9.952;2023-12-20T02:03:18;100163.34;;;5.14;100.00
13705;BME280;6924;52.122;9.952;2023-12-20T02:05:45;100166.78;;;4.95;100.00
13705;BME280;6924;52.122;9.952;2023-12-20T02:08:13;100155.00;;;4.99;100.00
13705;BME280;6924;52.122;9.952;2023-12-20T02:10:39;100153.78;;;5.15;100.00
13705;BME280;6924;52.122;9.952;2023-12-20T02:13:08;100163.03;;;5.21;100.00
13705;BME280;6924;52.122;9.952;2023-12-20T02:15:35;100162.16;;;5.20;100.00
13705;BME280;6924;52.122;9.952;2023-12-20T02:18:02;100165.47;;;5.32;100.00
13705;BME280;6924;52.122;9.952;2023-12-20T02:20:29;100168.25;;;5.37;100.00
13705;BME280;6924;52.122;9.952;2023-12-20T02:22:57;100163.88;;;5.21;100.00
13705;BME280;6924;52.122;9.952;2023-12-20T02:25:23;100167.28;;;5.08;100.00
13705;BME280;6924;52.122;9.952;2023-12-20T02:27:49;100165.59;;;5.12;100.00
13705;BME280;6924;52.122;9.952;2023-12-20T02:30:17;100172.28;;;5.21;100.00
13705;BME280;6924;52.122;9.952;2023-12-20T02:32:43;100159.13;;;5.16;100.00
13705;BME280;6924;52.122;9.952;2023-12-20T02:35:09;100163.66;;;5.02;100.00
13705;BME280;6924;52.122;9.952;2023-12-20T02:37:36;100155.59;;;4.90;100.00
13705;BME280;6924;52.122;9.952;2023-12-20T02:40:04;100144.59;;;5.04;100.00
13705;BME280;6924;52.122;9.952;2023-12-20T02:42:31;100137.56;;;5.07;100.00
13705;BME280;6924;52.122;9.952;2023-12-20T02:44:57;100129.16;;;5.07;100.00
13705;BME280;6924;52.122;9.952;2023-12-20T02:47:24;100130.69;;;4.84;100.00
13705;BME280;6924;52.122;9.952;2023-12-20T02:49:50;100131.31;;;4.70;100.00
13705;BME280;6924;52.122;9.952;2023-12-20T02:52:18;100128.72;;;4.84;100.00
13705;BME280;6924;52.122;9.952;2023-12-20T02:54:44;100144.34;;;5.01;100.00
13705;BME280;6924;52.122;9.952;2023-12-20T02:57:12;100145.19;;;5.01;100.00
13705;BME280;6924;52.122;9.952;2023-12-20T02:59:38;100138.75;;;5.01;100.00
13705;BME280;6924;52.122;9.952;2023-12-20T03:02:04;100129.16;;;5.07;100.00
13705;BME280;6924;52.122;9.952;2023-12-20T03:04:31;100127.31;;;4.87;100.00
13705;BME280;6924;52.122;9.952;2023-12-20T03:06:57;100120.91;;;4.81;100.00
13705;BME280;6924;52.122;9.952;2023-12-20T03:09:24;100138.03;;;4.74;100.00
13705;BME280;6924;52.122;9.952;2023-12-20T03:11:50;100143.56;;;4.85;100.00
13705;BME280;6924;52.122;9.952;2023-12-20T03:14:18;100138.88;;;4.70;100.00
13705;BME280;6924;52.122;9.952;2023-12-20T03:16:46;100135.28;;;4.54;100.00
13705;BME280;6924;52.122;9.952;2023-12-20T03:19:13;100134.16;;;4.55;100.00
13705;BME280;6924;52.122;9.952;2023-12-20T03:21:39;100125.47;;;4.62;100.00
13705;BME280;6924;52.122;9.952;2023-12-20T03:24:06;100131.66;;;4.59;100.00
13705;BME280;6924;52.122;9.952;2023-12-20T03:26:32;100131.06;;;4.62;100.00
13705;BME280;6924;52.122;9.952;2023-12-20T03:28:58;100130.47;;;4.70;100.00
13705;BME280;6924;52.122;9.952;2023-12-20T03:31:26;100126.50;;;4.81;100.00
13705;BME280;6924;52.122;9.952;2023-12-20T03:33:52;100120.06;;;4.75;100.00
13705;BME280;6924;52.122;9.952;2023-12-20T03:36:19;100112.81;;;4.69;100.00
13705;BME280;6924;52.122;9.952;2023-12-20T03:38:45;100101.31;;;4.71;100.00
13705;BME280;6924;52.122;9.952;2023-12-20T03:41:12;100098.31;;;4.57;100.00
13705;BME280;6924;52.122;9.952;2023-12-20T03:43:38;100085.72;;;4.54;100.00
13705;BME280;6924;52.122;9.952;2023-12-20T03:46:05;100073.38;;;4.55;100.00
13705;BME280;6924;52.122;9.952;2023-12-20T03:48:32;100068.38;;;4.47;100.00
13705;BME280;6924;52.122;9.952;2023-12-20T03:50:59;100077.91;;;4.46;100.00
13705;BME280;6924;52.122;9.952;2023-12-20T03:53:25;100085.78;;;4.34;100.00
13705;BME280;6924;52.122;9.952;2023-12-20T03:55:52;100080.47;;;4.38;100.00
13705;BME280;6924;52.122;9.952;2023-12-20T03:58:18;100084.09;;;4.38;100.00
13705;BME280;6924;52.122;9.952;2023-12-20T04:00:44;100088.59;;;4.39;100.00
13705;BME280;6924;52.122;9.952;2023-12-20T04:03:11;100096.97;;;4.34;100.00
13705;BME280;6924;52.122;9.952;2023-12-20T04:05:39;100094.19;;;4.34;100.00
13705;BME280;6924;52.122;9.952;2023-12-20T04:08:06;100098.69;;;4.30;100.00
13705;BME280;6924;52.122;9.952;2023-12-20T04:10:33;100092.78;;;4.31;100.00
13705;BME280;6924;52.122;9.952;2023-12-20T04:12:59;100100.94;;;4.28;100.00
13705;BME280;6924;52.122;9.952;2023-12-20T04:15:26;100097.56;;;4.31;100.00
13705;BME280;6924;52.122;9.952;2023-12-20T04:17:52;100090.88;;;4.22;100.00
13705;BME280;6924;52.122;9.952;2023-12-20T04:20:19;100095.28;;;4.38;100.00
13705;BME280;6924;52.122;9.952;2023-12-20T04:22:46;100094.19;;;4.39;100.00
13705;BME280;6924;52.122;9.952;2023-12-20T04:25:13;100099.78;;;4.34;100.00
13705;BME280;6924;52.122;9.952;2023-12-20T04:27:39;100102.28;;;4.41;100.00
13705;BME280;6924;52.122;9.952;2023-12-20T04:30:07;100108.19;;;4.34;100.00
13705;BME280;6924;52.122;9.952;2023-12-20T04:32:34;100092.50;;;4.38;100.00
13705;BME280;6924;52.122;9.952;2023-12-20T04:35:00;100103.13;;;4.46;100.00
13705;BME280;6924;52.122;9.952;2023-12-20T04:37:27;100096.38;;;4.47;100.00
13705;BME280;6924;52.122;9.952;2023-12-20T04:39:54;100087.13;;;4.47;100.00
13705;BME280;6924;52.122;9.952;2023-12-20T04:42:21;100090.53;;;4.39;100.00
13705;BME280;6924;52.122;9.952;2023-12-20T04:44:47;100093.03;;;4.40;100.00
13705;BME280;6924;52.122;9.952;2023-12-20T04:47:13;100085.19;;;4.42;100.00
13705;BME280;6924;52.122;9.952;2023-12-20T04:49:40;100073.97;;;4.47;100.00
13705;BME280;6924;52.122;9.952;2023-12-20T04:52:06;100075.63;;;4.53;100.00
13705;BME280;6924;52.122;9.952;2023-12-20T04:54:33;100077.00;;;4.61;100.00
13705;BME280;6924;52.122;9.952;2023-12-20T04:57:00;100061.91;;;4.57;100.00
13705;BME280;6924;52.122;9.952;2023-12-20T04:59:27;100059.88;;;4.68;100.00
13705;BME280;6924;52.122;9.952;2023-12-20T05:01:53;100061.63;;;4.53;100.00
13705;BME280;6924;52.122;9.952;2023-12-20T05:04:19;100052.97;;;4.45;100.00
13705;BME280;6924;52.122;9.952;2023-12-20T05:06:46;100055.47;;;4.51;100.00
13705;BME280;6924;52.122;9.952;2023-12-20T05:09:12;100059.13;;;4.47;100.00
13705;BME280;6924;52.122;9.952;2023-12-20T05:11:38;100060.28;;;4.46;100.00
13705;BME280;6924;52.122;9.952;2023-12-20T05:14:06;100068.38;;;4.52;100.00
13705;BME280;6924;52.122;9.952;2023-12-20T05:16:32;100077.06;;;4.46;100.00
13705;BME280;6924;52.122;9.952;2023-12-20T05:18:59;100065.00;;;4.50;100.00
13705;BME280;6924;52.122;9.952;2023-12-20T05:21:27;100065.56;;;4.47;100.00
13705;BME280;6924;52.122;9.952;2023-12-20T05:23:53;100058.03;;;4.48;100.00
13705;BME280;6924;52.122;9.952;2023-12-20T05:26:20;100058.28;;;4.57;100.00
13705;BME280;6924;52.122;9.952;2023-12-20T05:28:46;100064.97;;;4.55;100.00
13705;BME280;6924;52.122;9.952;2023-12-20T05:31:14;100066.69;;;4.51;100.00
13705;BME280;6924;52.122;9.952;2023-12-20T05:33:40;100061.63;;;4.53;100.00
13705;BME280;6924;52.122;9.952;2023-12-20T05:36:06;100059.94;;;4.58;100.00
13705;BME280;6924;52.122;9.952;2023-12-20T05:38:36;100064.13;;;4.60;100.00
13705;BME280;6924;52.122;9.952;2023-12-20T05:41:03;100051.50;;;4.63;100.00
13705;BME280;6924;52.122;9.952;2023-12-20T05:43:29;100048.41;;;4.64;100.00
13705;BME280;6924;52.122;9.952;2023-12-20T05:45:56;100040.28;;;4.63;100.00
13705;BME280;6924;52.122;9.952;2023-12-20T05:48:24;100043.91;;;4.68;100.00
13705;BME280;6924;52.122;9.952;2023-12-20T05:50:50;100041.69;;;4.65;100.00
13705;BME280;6924;52.122;9.952;2023-12-20T05:53:17;100034.69;;;4.68;100.00
13705;BME280;6924;52.122;9.952;2023-12-20T05:55:43;100045.56;;;4.74;100.00
13705;BME280;6924;52.122;9.952;2023-12-20T05:58:10;100054.28;;;4.68;100.00
13705;BME280;6924;52.122;9.952;2023-12-20T06:00:36;100049.78;;;4.67;100.00
13705;BME280;6924;52.122;9.952;2023-12-20T06:03:03;100057.66;;;4.70;100.00
13705;BME280;6924;52.122;9.952;2023-12-20T06:05:31;100055.41;;;4.72;100.00
13705;BME280;6924;52.122;9.952;2023-12-20T06:07:57;100043.09;;;4.68;100.00
13705;BME280;6924;52.122;9.952;2023-12-20T06:10:28;100052.03;;;4.70;100.00
13705;BME280;6924;52.122;9.952;2023-12-20T06:12:54;100047.81;;;4.72;100.00
13705;BME280;6924;52.122;9.952;2023-12-20T06:15:21;100056.22;;;4.72;100.00
13705;BME280;6924;52.122;9.952;2023-12-20T06:17:48;100058.75;;;4.69;100.00
13705;BME280;6924;52.122;9.952;2023-12-20T06:20:15;100065.19;;;4.69;100.00
13705;BME280;6924;52.122;9.952;2023-12-20T06:22:43;100070.50;;;4.71;100.00
13705;BME280;6924;52.122;9.952;2023-12-20T06:25:09;100058.47;;;4.70;100.00
13705;BME280;6924;52.122;9.952;2023-12-20T06:27:35;100052.28;;;4.73;100.00
13705;BME280;6924;52.122;9.952;2023-12-20T06:30:02;100056.47;;;4.76;100.00
13705;BME280;6924;52.122;9.952;2023-12-20T06:32:28;100065.47;;;4.73;100.00
13705;BME280;6924;52.122;9.952;2023-12-20T06:34:55;100064.31;;;4.74;100.00
13705;BME280;6924;52.122;9.952;2023-12-20T06:37:21;100058.47;;;4.70;100.00
13705;BME280;6924;52.122;9.952;2023-12-20T06:39:49;100056.22;;;4.72;100.00
13705;BME280;6924;52.122;9.952;2023-12-20T06:42:16;100056.50;;;4.71;100.00
13705;BME280;6924;52.122;9.952;2023-12-20T06:44:42;100050.34;;;4.69;100.00
13705;BME280;6924;52.122;9.952;2023-12-20T06:47:08;100059.31;;;4.71;100.00
13705;BME280;6924;52.122;9.952;2023-12-20T06:49:35;100059.03;;;4.72;100.00
13705;BME280;6924;52.122;9.952;2023-12-20T06:52:01;100052.59;;;4.67;100.00
13705;BME280;6924;52.122;9.952;2023-12-20T06:54:28;100067.75;;;4.66;100.00
13705;BME280;6924;52.122;9.952;2023-12-20T06:56:56;100061.00;;;4.67;100.00
13705;BME280;6924;52.122;9.952;2023-12-20T06:59:22;100054.84;;;4.70;100.00
13705;BME280;6924;52.122;9.952;2023-12-20T07:01:49;100041.63;;;4.81;100.00
13705;BME280;6924;52.122;9.952;2023-12-20T07:04:16;100057.25;;;4.87;100.00
13705;BME280;6924;52.122;9.952;2023-12-20T07:06:45;100049.75;;;4.77;100.00
13705;BME280;6924;52.122;9.952;2023-12-20T07:09:11;100052.28;;;4.79;100.00
13705;BME280;6924;52.122;9.952;2023-12-20T07:11:38;100045.81;;;4.83;100.00
13705;BME280;6924;52.122;9.952;2023-12-20T07:14:06;100043.00;;;4.78;100.00
13705;BME280;6924;52.122;9.952;2023-12-20T07:16:32;100048.06;;;4.76;100.00
13705;BME280;6924;52.122;9.952;2023-12-20T07:19:00;100047.22;;;4.75;100.00
13705;BME280;6924;52.122;9.952;2023-12-20T07:21:26;100040.22;;;4.78;100.00
13705;BME280;6924;52.122;9.952;2023-12-20T07:23:52;100043.03;;;4.73;100.00
13705;BME280;6924;52.122;9.952;2023-12-20T07:26:19;100043.59;;;4.75;100.00
13705;BME280;6924;52.122;9.952;2023-12-20T07:28:46;100048.09;;;4.71;100.00
13705;BME280;6924;52.122;9.952;2023-12-20T07:31:15;100048.94;;;4.71;100.00
13705;BME280;6924;52.122;9.952;2023-12-20T07:33:41;100052.03;;;4.70;100.00
13705;BME280;6924;52.122;9.952;2023-12-20T07:36:08;100051.22;;;4.64;100.00
13705;BME280;6924;52.122;9.952;2023-12-20T07:38:34;100048.38;;;4.69;100.00
13705;BME280;6924;52.122;9.952;2023-12-20T07:41:00;100049.47;;;4.73;100.00
13705;BME280;6924;52.122;9.952;2023-12-20T07:43:27;100051.50;;;4.68;100.00
13705;BME280;6924;52.122;9.952;2023-12-20T07:45:53;100059.34;;;4.61;100.00
13705;BME280;6924;52.122;9.952;2023-12-20T07:48:21;100057.13;;;4.58;100.00
13705;BME280;6924;52.122;9.952;2023-12-20T07:50:47;100063.56;;;4.58;100.00
13705;BME280;6924;52.122;9.952;2023-12-20T07:53:14;100054.03;;;4.64;100.00
13705;BME280;6924;52.122;9.952;2023-12-20T07:55:40;100053.09;;;4.74;100.00
13705;BME280;6924;52.122;9.952;2023-12-20T07:58:08;100048.59;;;4.83;100.00
13705;BME280;6924;52.122;9.952;2023-12-20T08:00:34;100036.53;;;4.83;100.00
13705;BME280;6924;52.122;9.952;2023-12-20T08:03:00;100042.13;;;4.83;100.00
13705;BME280;6924;52.122;9.952;2023-12-20T08:05:30;100041.31;;;4.82;100.00
13705;BME280;6924;52.122;9.952;2023-12-20T08:07:56;100039.34;;;4.83;100.00
13705;BME280;6924;52.122;9.952;2023-12-20T08:10:22;100038.25;;;4.79;100.00
13705;BME280;6924;52.122;9.952;2023-12-20T08:12:49;100032.91;;;4.82;100.00
13705;BME280;6924;52.122;9.952;2023-12-20T08:15:16;100032.88;;;4.87;100.00
13705;BME280;6924;52.122;9.952;2023-12-20T08:17:42;100024.16;;;4.89;100.00
13705;BME280;6924;52.122;9.952;2023-12-20T08:20:09;100036.53;;;4.88;100.00
13705;BME280;6924;52.122;9.952;2023-12-20T08:22:37;100037.91;;;4.90;100.00
13705;BME280;6924;52.122;9.952;2023-12-20T08:25:04;100046.25;;;4.95;100.00
13705;BME280;6924;52.122;9.952;2023-12-20T08:27:30;100052.41;;;4.97;100.00
13705;BME280;6924;52.122;9.952;2023-12-20T08:29:57;100051.84;;;5.01;100.00
13705;BME280;6924;52.122;9.952;2023-12-20T08:32:25;100041.72;;;5.05;100.00
13705;BME280;6924;52.122;9.952;2023-12-20T08:34:51;100032.19;;;5.06;100.00
13705;BME280;6924;52.122;9.952;2023-12-20T08:37:18;100029.94;;;5.08;100.00
13705;BME280;6924;52.122;9.952;2023-12-20T08:39:45;100036.66;;;5.07;100.00
13705;BME280;6924;52.122;9.952;2023-12-20T08:42:12;100031.59;;;5.14;100.00
13705;BME280;6924;52.122;9.952;2023-12-20T08:44:38;100025.44;;;5.07;100.00
13705;BME280;6924;52.122;9.952;2023-12-20T08:47:05;100039.78;;;5.05;100.00
13705;BME280;6924;52.122;9.952;2023-12-20T08:49:31;100025.72;;;5.10;100.00
13705;BME280;6924;52.122;9.952;2023-12-20T08:51:58;100015.88;;;5.13;100.00
13705;BME280;6924;52.122;9.952;2023-12-20T08:54:24;100016.97;;;5.17;100.00
13705;BME280;6924;52.122;9.952;2023-12-20T08:56:52;100008.59;;;5.12;100.00
13705;BME280;6924;52.122;9.952;2023-12-20T08:59:18;100004.13;;;5.11;100.00
13705;BME280;6924;52.122;9.952;2023-12-20T09:01:44;100004.03;;;5.21;100.00
13705;BME280;6924;52.122;9.952;2023-12-20T09:04:11;100007.94;;;5.25;100.00
13705;BME280;6924;52.122;9.952;2023-12-20T09:06:38;99997.84;;;5.24;100.00
13705;BME280;6924;52.122;9.952;2023-12-20T09:09:04;100006.22;;;5.29;100.00
13705;BME280;6924;52.122;9.952;2023-12-20T09:11:31;100005.63;;;5.32;100.00
13705;BME280;6924;52.122;9.952;2023-12-20T09:13:59;100003.97;;;5.31;100.00
13705;BME280;6924;52.122;9.952;2023-12-20T09:16:25;100010.63;;;5.35;100.00
13705;BME280;6924;52.122;9.952;2023-12-20T09:18:51;100002.88;;;5.27;100.00
13705;BME280;6924;52.122;9.952;2023-12-20T09:21:18;100002.22;;;5.35;100.00
13705;BME280;6924;52.122;9.952;2023-12-20T09:23:44;99989.34;;;5.34;100.00
13705;BME280;6924;52.122;9.952;2023-12-20T09:26:11;99991.00;;;5.35;100.00
13705;BME280;6924;52.122;9.952;2023-12-20T09:28:37;99994.63;;;5.41;100.00
13705;BME280;6924;52.122;9.952;2023-12-20T09:31:06;99989.59;;;5.38;100.00
13705;BME280;6924;52.122;9.952;2023-12-20T09:33:33;99985.09;;;5.37;100.00
13705;BME280;6924;52.122;9.952;2023-12-20T09:35:59;99979.22;;;5.38;100.00
13705;BME280;6924;52.122;9.952;2023-12-20T09:38:26;99974.38;;;5.44;100.00
13705;BME280;6924;52.122;9.952;2023-12-20T09:40:52;99986.13;;;5.46;100.00
13705;BME280;6924;52.122;9.952;2023-12-20T09:43:24;99974.38;;;5.44;100.00
13705;BME280;6924;52.122;9.952;2023-12-20T09:45:53;99972.63;;;5.53;100.00
13705;BME280;6924;52.122;9.952;2023-12-20T09:48:21;99969.50;;;5.55;100.00
13705;BME280;6924;52.122;9.952;2023-12-20T09:50:47;99956.31;;;5.55;100.00
13705;BME280;6924;52.122;9.952;2023-12-20T09:53:15;99949.84;;;5.60;100.00
13705;BME280;6924;52.122;9.952;2023-12-20T09:55:42;99946.44;;;5.63;100.00
13705;BME280;6924;52.122;9.952;2023-12-20T09:58:08;99948.03;;;5.69;100.00
13705;BME280;6924;52.122;9.952;2023-12-20T10:00:35;99935.97;;;5.69;100.00
13705;BME280;6924;52.122;9.952;2023-12-20T10:03:01;99940.72;;;5.73;100.00
13705;BME280;6924;52.122;9.952;2023-12-20T10:05:31;99935.94;;;5.74;100.00
13705;BME280;6924;52.122;9.952;2023-12-20T10:07:58;99934.97;;;5.84;100.00
13705;BME280;6924;52.122;9.952;2023-12-20T10:10:25;99934.97;;;5.84;100.00
13705;BME280;6924;52.122;9.952;2023-12-20T10:13:02;99939.66;;;5.88;100.00
13705;BME280;6924;52.122;9.952;2023-12-20T10:15:28;99934.03;;;5.93;100.00
13705;BME280;6924;52.122;9.952;2023-12-20T10:17:54;99920.88;;;5.89;100.00
13705;BME280;6924;52.122;9.952;2023-12-20T10:20:21;99924.81;;;5.88;100.00
13705;BME280;6924;52.122;9.952;2023-12-20T10:22:48;99925.34;;;5.90;100.00
13705;BME280;6924;52.122;9.952;2023-12-20T10:25:15;99916.31;;;5.98;100.00
13705;BME280;6924;52.122;9.952;2023-12-20T10:27:42;99921.31;;;6.01;100.00
13705;BME280;6924;52.122;9.952;2023-12-20T10:30:09;99906.72;;;5.99;100.00
13705;BME280;6924;52.122;9.952;2023-12-20T10:32:36;99908.63;;;6.04;100.00
13705;BME280;6924;52.122;9.952;2023-12-20T10:35:03;99904.38;;;6.06;100.00
13705;BME280;6924;52.122;9.952;2023-12-20T10:37:29;99913.41;;;6.03;100.00
13705;BME280;6924;52.122;9.952;2023-12-20T10:39:59;99901.06;;;6.04;100.00
13705;BME280;6924;52.122;9.952;2023-12-20T10:42:29;99908.88;;;6.07;100.00
13705;BME280;6924;52.122;9.952;2023-12-20T10:44:56;99908.41;;;6.00;100.00
13705;BME280;6924;52.122;9.952;2023-12-20T10:47:24;99886.78;;;6.00;100.00
13705;BME280;6924;52.122;9.952;2023-12-20T10:49:52;99882.09;;;5.96;100.00
13705;BME280;6924;52.122;9.952;2023-12-20T10:52:19;99891.25;;;6.02;100.00
13705;BME280;6924;52.122;9.952;2023-12-20T10:54:46;99881.72;;;6.03;100.00
13705;BME280;6924;52.122;9.952;2023-12-20T10:57:16;99892.31;;;6.06;100.00
13705;BME280;6924;52.122;9.952;2023-12-20T10:59:45;99904.09;;;6.08;100.00
13705;BME280;6924;52.122;9.952;2023-12-20T11:02:13;99889.84;;;6.04;100.00
13705;BME280;6924;52.122;9.952;2023-12-20T11:04:50;99887.09;;;5.99;100.00
13705;BME280;6924;52.122;9.952;2023-12-20T11:07:23;99891.25;;;6.02;100.00
13705;BME280;6924;52.122;9.952;2023-12-20T11:09:59;99882.09;;;5.96;100.00
13705;BME280;6924;52.122;9.952;2023-12-20T11:12:36;99880.34;;;6.00;100.00
13705;BME280;6924;52.122;9.952;2023-12-20T11:15:06;99889.59;;;6.00;100.00
13705;BME280;6924;52.122;9.952;2023-12-20T11:17:33;99897.47;;;5.98;100.00
13705;BME280;6924;52.122;9.952;2023-12-20T11:20:07;99885.44;;;5.98;100.00
13705;BME280;6924;52.122;9.952;2023-12-20T11:22:35;99883.78;;;5.92;100.00
13705;BME280;6924;52.122;9.952;2023-12-20T11:25:04;99876.94;;;5.79;100.00
13705;BME280;6924;52.122;9.952;2023-12-20T11:27:33;99878.06;;;5.78;100.00
13705;BME280;6924;52.122;9.952;2023-12-20T11:30:02;99883.97;;;5.76;100.00
13705;BME280;6924;52.122;9.952;2023-12-20T11:32:31;99877.00;;;5.74;100.00
13705;BME280;6924;52.122;9.952;2023-12-20T11:35:16;99881.09;;;5.82;100.00
13705;BME280;6924;52.122;9.952;2023-12-20T11:37:45;99870.94;;;5.86;100.00
13705;BME280;6924;52.122;9.952;2023-12-20T11:40:14;99873.72;;;5.67;100.00
13705;BME280;6924;52.122;9.952;2023-12-20T11:42:43;99866.97;;;5.68;100.00
13705;BME280;6924;52.122;9.952;2023-12-20T11:45:13;99882.72;;;5.64;100.00
13705;BME280;6924;52.122;9.952;2023-12-20T11:47:42;99874.31;;;5.64;100.00
13705;BME280;6924;52.122;9.952;2023-12-20T11:50:09;99867.88;;;5.63;100.00
13705;BME280;6924;52.122;9.952;2023-12-20T11:52:36;99867.25;;;5.66;100.00
13705;BME280;6924;52.122;9.952;2023-12-20T11:55:03;99849.31;;;5.67;100.00
13705;BME280;6924;52.122;9.952;2023-12-20T11:57:32;99846.41;;;5.72;100.00
13705;BME280;6924;52.122;9.952;2023-12-20T12:00:00;99841.41;;;5.69;100.00
13705;BME280;6924;52.122;9.952;2023-12-20T12:02:28;99840.56;;;5.69;100.00
13705;BME280;6924;52.122;9.952;2023-12-20T12:04:55;99847.31;;;5.68;100.00
13705;BME280;6924;52.122;9.952;2023-12-20T12:07:22;99856.81;;;5.72;100.00
13705;BME280;6924;52.122;9.952;2023-12-20T12:09:48;99866.97;;;5.68;100.00
13705;BME280;6924;52.122;9.952;2023-12-20T12:12:19;99861.06;;;5.69;100.00
13705;BME280;6924;52.122;9.952;2023-12-20T12:14:46;99869.78;;;5.68;100.00
13705;BME280;6924;52.122;9.952;2023-12-20T12:17:15;99858.28;;;5.64;100.00
13705;BME280;6924;52.122;9.952;2023-12-20T12:19:42;99857.63;;;5.53;100.00
13705;BME280;6924;52.122;9.952;2023-12-20T12:22:10;99866.34;;;5.47;100.00
13705;BME280;6924;52.122;9.952;2023-12-20T12:24:39;99853.84;;;5.39;100.00
13705;BME280;6924;52.122;9.952;2023-12-20T12:27:06;99867.31;;;5.37;100.00
13705;BME280;6924;52.122;9.952;2023-12-20T12:29:33;99882.28;;;5.27;100.00
13705;BME280;6924;52.122;9.952;2023-12-20T12:32:00;99886.56;;;4.56;100.00
13705;BME280;6924;52.122;9.952;2023-12-20T12:34:29;99888.25;;;4.12;100.00
13705;BME280;6924;52.122;9.952;2023-12-20T12:36:56;99882.50;;;3.88;100.00
13705;BME280;6924;52.122;9.952;2023-12-20T12:39:25;99893.50;;;3.69;100.00
13705;BME280;6924;52.122;9.952;2023-12-20T12:41:52;99893.22;;;3.71;100.00
13705;BME280;6924;52.122;9.952;2023-12-20T12:44:19;99906.91;;;3.72;100.00
13705;BME280;6924;52.122;9.952;2023-12-20T12:46:49;99908.06;;;3.66;100.00
13705;BME280;6924;52.122;9.952;2023-12-20T12:49:19;99911.13;;;3.65;100.00
13705;BME280;6924;52.122;9.952;2023-12-20T12:51:47;99896.63;;;3.58;100.00
13705;BME280;6924;52.122;9.952;2023-12-20T12:54:14;99894.38;;;3.55;100.00
13705;BME280;6924;52.122;9.952;2023-12-20T12:56:41;99886.25;;;3.58;100.00
13705;BME280;6924;52.122;9.952;2023-12-20T12:59:08;99892.69;;;3.64;100.00
13705;BME280;6924;52.122;9.952;2023-12-20T13:01:35;99888.47;;;3.66;100.00